sensor_id;sensor_type;location;lat;lon;timestamp;pressure;altitude;pressure_sealevel;temperature;humidity
57606;BME280;43430;48.204;11.556;2023-02-07T00:00:34;97800.84;;;-4.85;100.00
57606;BME280;43430;48.204;11.556;2023-02-07T00:03:00;97803.47;;;-4.86;100.00
57606;BME280;43430;48.204;11.556;2023-02-07T00:05:27;97797.50;;;-4.87;100.00
57606;BME280;43430;48.204;11.556;2023-02-07T00:07:52;97796.69;;;-4.87;100.00
57606;BME280;43430;48.204;11.556;2023-02-07T00:10:18;97791.84;;;-4.93;100.00
57606;BME280;43430;48.204;11.556;2023-02-07T00:12:43;97788.28;;;-4.91;100.00
57606;BME280;43430;48.204;11.556;2023-02-07T00:15:09;97792.19;;;-4.84;100.00
57606;BME280;43430;48.204;11.556;2023-02-07T00:17:34;97791.69;;;-4.90;100.00
57606;BME280;43430;48.204;11.556;2023-02-07T00:19:59;97791.03;;;-4.94;100.00
57606;BME280;43430;48.204;11.556;2023-02-07T00:22:25;97783.47;;;-4.97;100.00
57606;BME280;43430;48.204;11.556;2023-02-07T00:24:50;97786.97;;;-4.98;100.00
57606;BME280;43430;48.204;11.556;2023-02-07T00:27:15;97777.41;;;-4.96;100.00
57606;BME280;43430;48.204;11.556;2023-02-07T00:29:41;97770.44;;;-4.94;100.00
57606;BME280;43430;48.204;11.556;2023-02-07T00:32:06;97769.31;;;-4.88;100.00
57606;BME280;43430;48.204;11.556;2023-02-07T00:34:32;97765.13;;;-4.91;100.00
57606;BME280;43430;48.204;11.556;2023-02-07T00:37:03;97758.34;;;-4.92;100.00
57606;BME280;43430;48.204;11.556;2023-02-07T00:39:29;97765.66;;;-4.84;100.00
57606;BME280;43430;48.204;11.556;2023-02-07T00:41:54;97760.91;;;-4.92;100.00
57606;BME280;43430;48.204;11.556;2023-02-07T00:44:20;97760.16;;;-4.94;100.00
57606;BME280;43430;48.204;11.556;2023-02-07T00:46:45;97762.81;;;-4.95;100.00
57606;BME280;43430;48.204;11.556;2023-02-07T00:49:11;97755.94;;;-4.95;100.00
57606;BME280;43430;48.204;11.556;2023-02-07T00:51:36;97754.53;;;-4.85;100.00
57606;BME280;43430;48.204;11.556;2023-02-07T00:54:02;97756.25;;;-4.85;100.00
57606;BME280;43430;48.204;11.556;2023-02-07T00:56:29;97752.84;;;-4.86;100.00
57606;BME280;43430;48.204;11.556;2023-02-07T00:58:55;97757.50;;;-4.92;100.00
57606;BME280;43430;48.204;11.556;2023-02-07T01:01:21;97759.84;;;-4.88;100.00
57606;BME280;43430;48.204;11.556;2023-02-07T01:03:48;97759.06;;;-4.90;100.00
57606;BME280;43430;48.204;11.556;2023-02-07T01:06:14;97764.22;;;-4.90;100.00
57606;BME280;43430;48.204;11.556;2023-02-07T01:08:40;97773.28;;;-4.98;100.00
57606;BME280;43430;48.204;11.556;2023-02-07T01:11:09;97780.25;;;-4.85;100.00
57606;BME280;43430;48.204;11.556;2023-02-07T01:13:34;97783.06;;;-4.89;100.00
57606;BME280;43430;48.204;11.556;2023-02-07T01:16:00;97773.13;;;-4.95;100.00
57606;BME280;43430;48.204;11.556;2023-02-07T01:18:26;97775.34;;;-5.05;100.00
57606;BME280;43430;48.204;11.556;2023-02-07T01:20:51;97787.44;;;-5.07;100.00
57606;BME280;43430;48.204;11.556;2023-02-07T01:23:17;97789.75;;;-5.18;100.00
57606;BME280;43430;48.204;11.556;2023-02-07T01:25:44;97789.28;;;-5.27;100.00
57606;BME280;43430;48.204;11.556;2023-02-07T01:28:11;97792.25;;;-5.34;100.00
57606;BME280;43430;48.204;11.556;2023-02-07T01:30:42;97794.91;;;-5.36;100.00
57606;BME280;43430;48.204;11.556;2023-02-07T01:33:08;97800.34;;;-5.42;100.00
57606;BME280;43430;48.204;11.556;2023-02-07T01:35:34;97791.16;;;-5.46;100.00
57606;BME280;43430;48.204;11.556;2023-02-07T01:38:00;97801.13;;;-5.40;100.00
57606;BME280;43430;48.204;11.556;2023-02-07T01:40:28;97787.34;;;-5.39;100.00
57606;BME280;43430;48.204;11.556;2023-02-07T01:42:54;97789.47;;;-5.30;100.00
57606;BME280;43430;48.204;11.556;2023-02-07T01:45:33;97788.31;;;-5.24;100.00
57606;BME280;43430;48.204;11.556;2023-02-07T01:48:07;97787.31;;;-5.21;100.00
57606;BME280;43430;48.204;11.556;2023-02-07T01:50:33;97795.63;;;-5.16;100.00
57606;BME280;43430;48.204;11.556;2023-02-07T01:53:01;97797.75;;;-5.25;100.00
57606;BME280;43430;48.204;11.556;2023-02-07T01:55:31;97794.53;;;-5.28;100.00
57606;BME280;43430;48.204;11.556;2023-02-07T01:58:00;97798.16;;;-5.32;100.00
57606;BME280;43430;48.204;11.556;2023-02-07T02:00:27;97792.25;;;-5.34;100.00
57606;BME280;43430;48.204;11.556;2023-02-07T02:02:53;97793.84;;;-5.32;100.00
57606;BME280;43430;48.204;11.556;2023-02-07T02:05:20;97789.94;;;-5.39;100.00
57606;BME280;43430;48.204;11.556;2023-02-07T02:07:45;97797.53;;;-5.37;100.00
57606;BME280;43430;48.204;11.556;2023-02-07T02:10:19;97798.22;;;-5.34;100.00
57606;BME280;43430;48.204;11.556;2023-02-07T02:13:09;97794.16;;;-5.38;100.00
57606;BME280;43430;48.204;11.556;2023-02-07T02:22:49;97798.22;;;-5.34;100.00
57606;BME280;43430;48.204;11.556;2023-02-07T02:25:10;97804.38;;;-5.36;100.00
57606;BME280;43430;48.204;11.556;2023-02-07T02:30:44;97791.00;;;-5.43;100.00
57606;BME280;43430;48.204;11.556;2023-02-07T02:38:32;97795.81;;;-5.54;100.00
57606;BME280;43430;48.204;11.556;2023-02-07T02:45:57;97810.66;;;-5.42;100.00
57606;BME280;43430;48.204;11.556;2023-02-07T02:48:23;97810.13;;;-5.49;100.00
57606;BME280;43430;48.204;11.556;2023-02-07T02:50:52;97818.06;;;-5.53;100.00
57606;BME280;43430;48.204;11.556;2023-02-07T02:53:19;97816.72;;;-5.60;100.00
57606;BME280;43430;48.204;11.556;2023-02-07T03:09:50;97826.84;;;-5.57;100.00
57606;BME280;43430;48.204;11.556;2023-02-07T03:15:01;97831.22;;;-5.59;100.00
57606;BME280;43430;48.204;11.556;2023-02-07T03:17:36;97816.88;;;-5.63;100.00
57606;BME280;43430;48.204;11.556;2023-02-07T03:20:33;97816.88;;;-5.63;100.00
57606;BME280;43430;48.204;11.556;2023-02-07T03:23:01;97808.00;;;-5.58;100.00
57606;BME280;43430;48.204;11.556;2023-02-07T03:25:29;97807.19;;;-5.58;100.00
57606;BME280;43430;48.204;11.556;2023-02-07T03:27:56;97795.34;;;-5.61;100.00
57606;BME280;43430;48.204;11.556;2023-02-07T03:30:24;97802.13;;;-5.60;100.00
57606;BME280;43430;48.204;11.556;2023-02-07T03:32:55;97792.53;;;-5.56;100.00
57606;BME280;43430;48.204;11.556;2023-02-07T03:35:29;97799.63;;;-5.61;100.00
57606;BME280;43430;48.204;11.556;2023-02-07T03:38:01;97792.75;;;-5.61;100.00
57606;BME280;43430;48.204;11.556;2023-02-07T03:40:31;97784.97;;;-5.59;100.00
57606;BME280;43430;48.204;11.556;2023-02-07T03:43:05;97794.31;;;-5.58;100.00
57606;BME280;43430;48.204;11.556;2023-02-07T03:45:31;97784.13;;;-5.60;100.00
57606;BME280;43430;48.204;11.556;2023-02-07T03:47:56;97782.38;;;-5.59;100.00
57606;BME280;43430;48.204;11.556;2023-02-07T03:50:22;97811.78;;;-5.65;100.00
57606;BME280;43430;48.204;11.556;2023-02-07T03:52:47;97812.84;;;-5.69;100.00
57606;BME280;43430;48.204;11.556;2023-02-07T03:55:13;97822.44;;;-5.73;100.00
57606;BME280;43430;48.204;11.556;2023-02-07T03:57:38;97814.81;;;-5.74;100.00
57606;BME280;43430;48.204;11.556;2023-02-07T04:00:05;97808.88;;;-5.75;100.00
57606;BME280;43430;48.204;11.556;2023-02-07T04:02:31;97812.47;;;-5.79;100.00
57606;BME280;43430;48.204;11.556;2023-02-07T04:04:56;97819.13;;;-5.75;100.00
57606;BME280;43430;48.204;11.556;2023-02-07T04:07:21;97816.56;;;-5.75;100.00
57606;BME280;43430;48.204;11.556;2023-02-07T04:09:47;97820.03;;;-5.76;100.00
57606;BME280;43430;48.204;11.556;2023-02-07T04:12:12;97809.00;;;-5.78;100.00
57606;BME280;43430;48.204;11.556;2023-02-07T04:14:37;97815.94;;;-5.80;100.00
57606;BME280;43430;48.204;11.556;2023-02-07T04:17:03;97807.72;;;-5.86;100.00
57606;BME280;43430;48.204;11.556;2023-02-07T04:19:28;97815.41;;;-5.86;100.00
57606;BME280;43430;48.204;11.556;2023-02-07T04:21:54;97812.03;;;-5.87;100.00
57606;BME280;43430;48.204;11.556;2023-02-07T04:24:19;97804.06;;;-5.82;100.00
57606;BME280;43430;48.204;11.556;2023-02-07T04:26:44;97793.88;;;-5.84;100.00
57606;BME280;43430;48.204;11.556;2023-02-07T04:29:10;97802.34;;;-5.99;100.00
57606;BME280;43430;48.204;11.556;2023-02-07T04:31:35;97800.47;;;-5.95;100.00
57606;BME280;43430;48.204;11.556;2023-02-07T04:34:02;97798.66;;;-5.93;100.00
57606;BME280;43430;48.204;11.556;2023-02-07T04:36:27;97795.09;;;-5.91;100.00
57606;BME280;43430;48.204;11.556;2023-02-07T04:38:54;97796.34;;;-5.98;100.00
57606;BME280;43430;48.204;11.556;2023-02-07T04:41:19;97778.72;;;-5.88;100.00
57606;BME280;43430;48.204;11.556;2023-02-07T04:43:44;97768.50;;;-5.90;100.00
57606;BME280;43430;48.204;11.556;2023-02-07T04:46:10;97756.44;;;-5.88;100.00
57606;BME280;43430;48.204;11.556;2023-02-07T04:48:36;97756.03;;;-5.80;100.00
57606;BME280;43430;48.204;11.556;2023-02-07T04:51:02;97760.56;;;-5.85;100.00
57606;BME280;43430;48.204;11.556;2023-02-07T04:53:27;97760.56;;;-5.85;100.00
57606;BME280;43430;48.204;11.556;2023-02-07T04:55:53;97758.22;;;-5.90;100.00
57606;BME280;43430;48.204;11.556;2023-02-07T04:58:19;97772.72;;;-5.89;100.00
57606;BME280;43430;48.204;11.556;2023-02-07T05:00:46;97774.66;;;-5.92;100.00
57606;BME280;43430;48.204;11.556;2023-02-07T05:03:11;97786.06;;;-5.98;100.00
57606;BME280;43430;48.204;11.556;2023-02-07T05:05:38;97782.28;;;-6.08;100.00
57606;BME280;43430;48.204;11.556;2023-02-07T05:08:04;97797.75;;;-6.10;100.00
57606;BME280;43430;48.204;11.556;2023-02-07T05:10:29;97802.34;;;-6.16;100.00
57606;BME280;43430;48.204;11.556;2023-02-07T05:12:55;97802.19;;;-6.13;100.00
57606;BME280;43430;48.204;11.556;2023-02-07T05:15:20;97789.44;;;-6.15;100.00
57606;BME280;43430;48.204;11.556;2023-02-07T05:17:45;97795.19;;;-6.10;100.00
57606;BME280;43430;48.204;11.556;2023-02-07T05:20:11;97788.38;;;-6.11;100.00
57606;BME280;43430;48.204;11.556;2023-02-07T05:22:36;97790.28;;;-6.14;100.00
57606;BME280;43430;48.204;11.556;2023-02-07T05:25:02;97795.56;;;-6.17;100.00
57606;BME280;43430;48.204;11.556;2023-02-07T05:27:28;97801.75;;;-6.22;100.00
57606;BME280;43430;48.204;11.556;2023-02-07T05:29:53;97803.09;;;-6.14;100.00
57606;BME280;43430;48.204;11.556;2023-02-07T05:32:18;97804.31;;;-6.22;100.00
57606;BME280;43430;48.204;11.556;2023-02-07T05:35:02;97814.16;;;-6.31;100.00
57606;BME280;43430;48.204;11.556;2023-02-07T05:37:29;97815.13;;;-6.34;100.00
57606;BME280;43430;48.204;11.556;2023-02-07T05:39:54;97819.88;;;-6.43;100.00
57606;BME280;43430;48.204;11.556;2023-02-07T05:42:20;97815.59;;;-6.43;100.00
57606;BME280;43430;48.204;11.556;2023-02-07T05:44:45;97804.38;;;-6.59;100.00
57606;BME280;43430;48.204;11.556;2023-02-07T05:47:10;97816.69;;;-6.68;100.00
57606;BME280;43430;48.204;11.556;2023-02-07T05:49:36;97820.16;;;-6.69;100.00
57606;BME280;43430;48.204;11.556;2023-02-07T05:52:03;97820.03;;;-6.65;100.00
57606;BME280;43430;48.204;11.556;2023-02-07T05:54:28;97829.09;;;-6.58;100.00
57606;BME280;43430;48.204;11.556;2023-02-07T05:56:53;97824.47;;;-6.50;100.00
57606;BME280;43430;48.204;11.556;2023-02-07T05:59:19;97808.72;;;-6.61;100.00
57606;BME280;43430;48.204;11.556;2023-02-07T06:01:44;97817.25;;;-6.61;100.00
57606;BME280;43430;48.204;11.556;2023-02-07T06:04:10;97816.16;;;-6.55;100.00
57606;BME280;43430;48.204;11.556;2023-02-07T06:06:35;97825.44;;;-6.53;100.00
57606;BME280;43430;48.204;11.556;2023-02-07T06:09:00;97822.50;;;-6.45;100.00
57606;BME280;43430;48.204;11.556;2023-02-07T06:11:26;97823.34;;;-6.45;100.00
57606;BME280;43430;48.204;11.556;2023-02-07T06:13:51;97824.47;;;-6.50;100.00
57606;BME280;43430;48.204;11.556;2023-02-07T06:16:17;97832.91;;;-6.48;100.00
57606;BME280;43430;48.204;11.556;2023-02-07T06:18:42;97836.41;;;-6.49;100.00
57606;BME280;43430;48.204;11.556;2023-02-07T06:21:07;97839.19;;;-6.54;100.00
57606;BME280;43430;48.204;11.556;2023-02-07T06:23:33;97841.81;;;-6.55;100.00
57606;BME280;43430;48.204;11.556;2023-02-07T06:25:58;97835.16;;;-6.59;100.00
57606;BME280;43430;48.204;11.556;2023-02-07T06:28:23;97833.50;;;-6.60;100.00
57606;BME280;43430;48.204;11.556;2023-02-07T06:31:11;97831.69;;;-6.58;100.00
57606;BME280;43430;48.204;11.556;2023-02-07T06:33:36;97825.84;;;-6.62;100.00
57606;BME280;43430;48.204;11.556;2023-02-07T06:36:02;97834.19;;;-6.57;100.00
57606;BME280;43430;48.204;11.556;2023-02-07T06:38:28;97820.66;;;-6.60;100.00
57606;BME280;43430;48.204;11.556;2023-02-07T06:40:53;97822.94;;;-6.54;100.00
57606;BME280;43430;48.204;11.556;2023-02-07T06:43:18;97821.97;;;-6.52;100.00
57606;BME280;43430;48.204;11.556;2023-02-07T06:45:44;97823.63;;;-6.51;100.00
57606;BME280;43430;48.204;11.556;2023-02-07T06:48:10;97834.56;;;-6.47;100.00
57606;BME280;43430;48.204;11.556;2023-02-07T06:50:35;97835.22;;;-6.42;100.00
57606;BME280;43430;48.204;11.556;2023-02-07T06:53:01;97840.25;;;-6.40;100.00
57606;BME280;43430;48.204;11.556;2023-02-07T06:55:28;97842.97;;;-6.43;100.00
57606;BME280;43430;48.204;11.556;2023-02-07T06:57:54;97831.69;;;-6.39;100.00
57606;BME280;43430;48.204;11.556;2023-02-07T07:00:19;97840.63;;;-6.29;100.00
57606;BME280;43430;48.204;11.556;2023-02-07T07:02:46;97845.81;;;-6.31;100.00
57606;BME280;43430;48.204;11.556;2023-02-07T07:05:12;97839.84;;;-6.31;100.00
57606;BME280;43430;48.204;11.556;2023-02-07T07:07:37;97845.81;;;-6.31;100.00
57606;BME280;43430;48.204;11.556;2023-02-07T07:10:04;97847.53;;;-6.31;100.00
57606;BME280;43430;48.204;11.556;2023-02-07T07:12:29;97842.28;;;-6.28;100.00
57606;BME280;43430;48.204;11.556;2023-02-07T07:14:55;97846.28;;;-6.23;100.00
57606;BME280;43430;48.204;11.556;2023-02-07T07:17:20;97845.38;;;-6.22;100.00
57606;BME280;43430;48.204;11.556;2023-02-07T07:19:46;97843.41;;;-6.16;100.00
57606;BME280;43430;48.204;11.556;2023-02-07T07:22:11;97841.00;;;-6.19;100.00
57606;BME280;43430;48.204;11.556;2023-02-07T07:24:36;97847.44;;;-6.11;100.00
57606;BME280;43430;48.204;11.556;2023-02-07T07:27:02;97838.81;;;-6.10;100.00
57606;BME280;43430;48.204;11.556;2023-02-07T07:29:27;97843.75;;;-6.05;100.00
57606;BME280;43430;48.204;11.556;2023-02-07T07:31:53;97839.22;;;-6.00;100.00
57606;BME280;43430;48.204;11.556;2023-02-07T07:34:18;97844.63;;;-5.89;100.00
57606;BME280;43430;48.204;11.556;2023-02-07T07:36:43;97842.75;;;-5.85;100.00
57606;BME280;43430;48.204;11.556;2023-02-07T07:39:09;97844.13;;;-5.78;100.00
57606;BME280;43430;48.204;11.556;2023-02-07T07:41:35;97840.38;;;-5.71;100.00
57606;BME280;43430;48.204;11.556;2023-02-07T07:44:01;97835.75;;;-5.64;100.00
57606;BME280;43430;48.204;11.556;2023-02-07T07:46:26;97837.28;;;-5.60;100.00
57606;BME280;43430;48.204;11.556;2023-02-07T07:48:52;97829.22;;;-5.54;100.00
57606;BME280;43430;48.204;11.556;2023-02-07T07:51:17;97818.06;;;-5.53;100.00
57606;BME280;43430;48.204;11.556;2023-02-07T07:53:42;97811.09;;;-5.51;100.00
57606;BME280;43430;48.204;11.556;2023-02-07T07:56:08;97811.09;;;-5.51;100.00
57606;BME280;43430;48.204;11.556;2023-02-07T07:58:33;97799.47;;;-5.58;100.00
57606;BME280;43430;48.204;11.556;2023-02-07T08:00:58;97799.47;;;-5.58;100.00
57606;BME280;43430;48.204;11.556;2023-02-07T08:03:24;97807.25;;;-5.60;100.00
57606;BME280;43430;48.204;11.556;2023-02-07T08:05:49;97813.22;;;-5.59;100.00
57606;BME280;43430;48.204;11.556;2023-02-07T08:08:16;97816.56;;;-5.57;100.00
57606;BME280;43430;48.204;11.556;2023-02-07T08:10:44;97811.44;;;-5.57;100.00
57606;BME280;43430;48.204;11.556;2023-02-07T08:13:10;97813.13;;;-5.40;100.00
57606;BME280;43430;48.204;11.556;2023-02-07T08:15:36;97824.53;;;-5.29;100.00
57606;BME280;43430;48.204;11.556;2023-02-07T08:18:02;97827.53;;;-5.20;100.00
57606;BME280;43430;48.204;11.556;2023-02-07T08:20:27;97814.00;;;-5.24;100.00
57606;BME280;43430;48.204;11.556;2023-02-07T08:22:53;97809.53;;;-5.20;100.00
57606;BME280;43430;48.204;11.556;2023-02-07T08:25:18;97810.88;;;-5.13;100.00
57606;BME280;43430;48.204;11.556;2023-02-07T08:27:44;97818.13;;;-5.04;100.00
57606;BME280;43430;48.204;11.556;2023-02-07T08:30:11;97813.25;;;-4.93;100.00
57606;BME280;43430;48.204;11.556;2023-02-07T08:32:37;97809.28;;;-4.83;100.00
57606;BME280;43430;48.204;11.556;2023-02-07T08:35:04;97812.72;;;-4.66;100.00
57606;BME280;43430;48.204;11.556;2023-02-07T08:37:30;97816.94;;;-4.65;100.00
57606;BME280;43430;48.204;11.556;2023-02-07T08:39:55;97812.72;;;-4.66;100.00
57606;BME280;43430;48.204;11.556;2023-02-07T08:42:22;97813.41;;;-4.47;100.00
57606;BME280;43430;48.204;11.556;2023-02-07T08:44:48;97823.28;;;-4.39;100.00
57606;BME280;43430;48.204;11.556;2023-02-07T08:47:15;97815.28;;;-4.35;100.00
57606;BME280;43430;48.204;11.556;2023-02-07T08:49:41;97816.63;;;-4.27;100.00
57606;BME280;43430;48.204;11.556;2023-02-07T08:52:07;97819.03;;;-4.24;100.00
57606;BME280;43430;48.204;11.556;2023-02-07T08:54:33;97823.84;;;-4.18;100.00
57606;BME280;43430;48.204;11.556;2023-02-07T08:56:58;97830.31;;;-4.11;100.00
57606;BME280;43430;48.204;11.556;2023-02-07T08:59:23;97827.06;;;-3.99;100.00
57606;BME280;43430;48.204;11.556;2023-02-07T09:01:49;97831.03;;;-3.93;100.00
57606;BME280;43430;48.204;11.556;2023-02-07T09:04:14;97828.56;;;-3.95;100.00
57606;BME280;43430;48.204;11.556;2023-02-07T09:06:40;97819.22;;;-3.82;100.00
57606;BME280;43430;48.204;11.556;2023-02-07T09:09:05;97817.19;;;-3.76;100.00
57606;BME280;43430;48.204;11.556;2023-02-07T09:11:31;97817.13;;;-3.75;100.00
57606;BME280;43430;48.204;11.556;2023-02-07T09:13:57;97823.31;;;-3.63;100.00
57606;BME280;43430;48.204;11.556;2023-02-07T09:16:22;97830.59;;;-3.55;100.00
57606;BME280;43430;48.204;11.556;2023-02-07T09:18:48;97830.81;;;-3.44;100.00
57606;BME280;43430;48.204;11.556;2023-02-07T09:21:14;97830.28;;;-3.35;100.00
57606;BME280;43430;48.204;11.556;2023-02-07T09:23:39;97835.91;;;-3.43;100.00
57606;BME280;43430;48.204;11.556;2023-02-07T09:26:06;97834.13;;;-3.42;100.00
57606;BME280;43430;48.204;11.556;2023-02-07T09:28:32;97826.88;;;-3.36;100.00
57606;BME280;43430;48.204;11.556;2023-02-07T09:30:58;97830.22;;;-3.33;100.00
57606;BME280;43430;48.204;11.556;2023-02-07T09:33:23;97834.63;;;-3.36;100.00
57606;BME280;43430;48.204;11.556;2023-02-07T09:35:49;97830.69;;;-3.27;100.00
57606;BME280;43430;48.204;11.556;2023-02-07T09:38:18;97830.84;;;-3.30;100.00
57606;BME280;43430;48.204;11.556;2023-02-07T09:40:47;97835.84;;;-3.27;100.00
57606;BME280;43430;48.204;11.556;2023-02-07T09:43:47;97831.06;;;-3.19;100.00
57606;BME280;43430;48.204;11.556;2023-02-07T09:46:23;97832.44;;;-3.13;100.00
57606;BME280;43430;48.204;11.556;2023-02-07T09:48:54;97833.16;;;-3.11;100.00
57606;BME280;43430;48.204;11.556;2023-02-07T09:51:24;97831.06;;;-3.04;100.00
57606;BME280;43430;48.204;11.556;2023-02-07T09:53:57;97830.59;;;-2.97;100.00
57606;BME280;43430;48.204;11.556;2023-02-07T09:56:26;97821.19;;;-2.98;100.00
57606;BME280;43430;48.204;11.556;2023-02-07T10:01:38;97821.47;;;-2.74;100.00
57606;BME280;43430;48.204;11.556;2023-02-07T10:06:48;97824.69;;;-2.70;100.00
57606;BME280;43430;48.204;11.556;2023-02-07T10:09:17;97822.59;;;-2.78;100.00
57606;BME280;43430;48.204;11.556;2023-02-07T10:12:43;97824.69;;;-2.70;100.00
57606;BME280;43430;48.204;11.556;2023-02-07T10:15:13;97823.50;;;-2.65;100.00
57606;BME280;43430;48.204;11.556;2023-02-07T10:20:49;97808.66;;;-2.61;100.00
57606;BME280;43430;48.204;11.556;2023-02-07T10:23:33;97804.09;;;-2.43;100.00
57606;BME280;43430;48.204;11.556;2023-02-07T10:31:15;97802.78;;;-2.36;100.00
57606;BME280;43430;48.204;11.556;2023-02-07T10:33:47;97807.00;;;-2.35;100.00
57606;BME280;43430;48.204;11.556;2023-02-07T10:36:15;97818.53;;;-2.26;100.00
57606;BME280;43430;48.204;11.556;2023-02-07T10:41:36;97816.72;;;-2.11;100.00
57606;BME280;43430;48.204;11.556;2023-02-07T10:44:04;97819.63;;;-2.16;100.00
57606;BME280;43430;48.204;11.556;2023-02-07T10:46:30;97812.19;;;-2.08;100.00
57606;BME280;43430;48.204;11.556;2023-02-07T10:48:56;97815.53;;;-2.06;100.00
57606;BME280;43430;48.204;11.556;2023-02-07T10:51:28;97813.81;;;-1.93;100.00
57606;BME280;43430;48.204;11.556;2023-02-07T10:54:09;97806.06;;;-1.93;100.00
57606;BME280;43430;48.204;11.556;2023-02-07T10:56:43;97804.53;;;-1.82;100.00
57606;BME280;43430;48.204;11.556;2023-02-07T10:59:36;97814.78;;;-1.81;100.00
57606;BME280;43430;48.204;11.556;2023-02-07T11:05:39;97814.47;;;-1.76;100.00
57606;BME280;43430;48.204;11.556;2023-02-07T11:07:58;97815.22;;;-1.74;100.00
57606;BME280;43430;48.204;11.556;2023-02-07T11:10:26;97820.34;;;-1.87;100.00
57606;BME280;43430;48.204;11.556;2023-02-07T11:12:55;97808.19;;;-1.59;100.00
57606;BME280;43430;48.204;11.556;2023-02-07T11:15:30;97809.47;;;-1.39;100.00
57606;BME280;43430;48.204;11.556;2023-02-07T11:17:57;97805.75;;;-1.35;100.00
57606;BME280;43430;48.204;11.556;2023-02-07T11:20:32;97804.59;;;-1.31;100.00
57606;BME280;43430;48.204;11.556;2023-02-07T11:22:59;97805.47;;;-1.31;100.00
57606;BME280;43430;48.204;11.556;2023-02-07T11:25:33;97789.41;;;-1.23;100.00
57606;BME280;43430;48.204;11.556;2023-02-07T11:28:00;97792.09;;;-1.12;100.00
57606;BME280;43430;48.204;11.556;2023-02-07T11:30:27;97792.81;;;-1.10;100.00
57606;BME280;43430;48.204;11.556;2023-02-07T11:33:04;97783.59;;;-1.14;100.00
57606;BME280;43430;48.204;11.556;2023-02-07T11:35:34;97784.75;;;-1.18;100.00
57606;BME280;43430;48.204;11.556;2023-02-07T11:38:03;97781.75;;;-0.99;100.00
57606;BME280;43430;48.204;11.556;2023-02-07T11:40:36;97768.69;;;-0.98;100.00
57606;BME280;43430;48.204;11.556;2023-02-07T11:45:35;97765.13;;;-0.71;100.00
57606;BME280;43430;48.204;11.556;2023-02-07T11:48:02;97757.97;;;-0.67;100.00
57606;BME280;43430;48.204;11.556;2023-02-07T11:50:36;97754.03;;;-0.73;100.00
57606;BME280;43430;48.204;11.556;2023-02-07T11:53:19;97750.72;;;-0.75;100.00
57606;BME280;43430;48.204;11.556;2023-02-07T11:55:49;97753.63;;;-0.80;100.00
57606;BME280;43430;48.204;11.556;2023-02-07T11:58:32;97750.41;;;-0.70;100.00
57606;BME280;43430;48.204;11.556;2023-02-07T12:01:00;97744.47;;;-0.60;100.00
57606;BME280;43430;48.204;11.556;2023-02-07T12:03:30;97745.59;;;-0.51;100.00
57606;BME280;43430;48.204;11.556;2023-02-07T12:05:59;97754.38;;;-0.41;100.00
57606;BME280;43430;48.204;11.556;2023-02-07T12:08:29;97736.88;;;-0.26;100.00
57606;BME280;43430;48.204;11.556;2023-02-07T12:11:03;97747.81;;;-0.34;100.00
57606;BME280;43430;48.204;11.556;2023-02-07T12:13:42;97740.03;;;-0.34;100.00
57606;BME280;43430;48.204;11.556;2023-02-07T12:16:18;97734.50;;;-0.29;100.00
57606;BME280;43430;48.204;11.556;2023-02-07T12:24:00;97724.34;;;-0.32;100.00
57606;BME280;43430;48.204;11.556;2023-02-07T12:26:29;97716.88;;;-0.24;100.00
57606;BME280;43430;48.204;11.556;2023-02-07T12:34:46;97709.03;;;-0.35;100.00
57606;BME280;43430;48.204;11.556;2023-02-07T12:37:30;97713.16;;;-0.33;100.00
57606;BME280;43430;48.204;11.556;2023-02-07T12:40:33;97711.34;;;-0.19;96.39
57606;BME280;43430;48.204;11.556;2023-02-07T12:43:10;97695.44;;;-0.15;96.20
57606;BME280;43430;48.204;11.556;2023-02-07T12:51:52;97696.63;;;-0.08;98.16
57606;BME280;43430;48.204;11.556;2023-02-07T12:57:42;97687.44;;;-0.12;96.76
57606;BME280;43430;48.204;11.556;2023-02-07T13:00:32;97689.38;;;-0.03;98.88
57606;BME280;43430;48.204;11.556;2023-02-07T13:06:04;97689.88;;;0.14;97.20
57606;BME280;43430;48.204;11.556;2023-02-07T13:08:51;97695.53;;;0.08;91.74
57606;BME280;43430;48.204;11.556;2023-02-07T13:11:42;97696.28;;;0.21;92.29
57606;BME280;43430;48.204;11.556;2023-02-07T13:20:16;97691.03;;;0.10;91.09
57606;BME280;43430;48.204;11.556;2023-02-07T13:22:52;97697.09;;;0.21;89.95
57606;BME280;43430;48.204;11.556;2023-02-07T13:25:26;97687.53;;;0.11;87.70
57606;BME280;43430;48.204;11.556;2023-02-07T13:27:55;97697.78;;;0.12;91.41
57606;BME280;43430;48.204;11.556;2023-02-07T13:30:22;97695.78;;;0.16;92.97
57606;BME280;43430;48.204;11.556;2023-02-07T13:32:49;97696.94;;;0.12;96.19
57606;BME280;43430;48.204;11.556;2023-02-07T13:35:22;97698.81;;;0.10;93.36
57606;BME280;43430;48.204;11.556;2023-02-07T13:40:54;97702.81;;;0.03;97.70
57606;BME280;43430;48.204;11.556;2023-02-07T13:45:56;97697.97;;;-0.02;97.20
57606;BME280;43430;48.204;11.556;2023-02-07T13:55:47;97703.75;;;0.02;89.70
57606;BME280;43430;48.204;11.556;2023-02-07T14:01:20;97705.16;;;-0.06;89.20
57606;BME280;43430;48.204;11.556;2023-02-07T14:04:07;97715.75;;;-0.09;89.66
57606;BME280;43430;48.204;11.556;2023-02-07T14:06:38;97725.66;;;-0.03;90.25
57606;BME280;43430;48.204;11.556;2023-02-07T14:11:45;97727.38;;;-0.14;84.73
57606;BME280;43430;48.204;11.556;2023-02-07T14:16:58;97738.72;;;-0.04;78.01
57606;BME280;43430;48.204;11.556;2023-02-07T14:22:25;97727.09;;;0.02;78.83
57606;BME280;43430;48.204;11.556;2023-02-07T14:27:39;97740.63;;;-0.06;74.44
57606;BME280;43430;48.204;11.556;2023-02-07T14:37:51;97744.13;;;-0.07;57.56
57606;BME280;43430;48.204;11.556;2023-02-07T14:40:24;97744.03;;;-0.06;57.38
57606;BME280;43430;48.204;11.556;2023-02-07T14:43:01;97741.91;;;-0.01;56.07
57606;BME280;43430;48.204;11.556;2023-02-07T14:45:34;97735.81;;;0.01;57.91
57606;BME280;43430;48.204;11.556;2023-02-07T14:48:05;97743.41;;;0.15;59.34
57606;BME280;43430;48.204;11.556;2023-02-07T14:50:31;97738.44;;;0.12;59.38